sensor_id;sensor_type;location;lat;lon;timestamp;pressure;altitude;pressure_sealevel;temperature;humidity
45541;BME280;31265;49.680;8.608;2022-09-03T00:00:05;100054.25;;;19.45;42.47
45541;BME280;31265;49.680;8.608;2022-09-03T00:02:39;100071.22;;;19.47;43.29
45541;BME280;31265;49.680;8.608;2022-09-03T00:05:15;100067.03;;;19.32;43.10
45541;BME280;31265;49.680;8.608;2022-09-03T00:07:48;100070.53;;;19.17;43.47
45541;BME280;31265;49.680;8.608;2022-09-03T00:10:24;100072.69;;;19.19;43.30
45541;BME280;31265;49.680;8.608;2022-09-03T00:12:58;100069.34;;;19.22;43.82
45541;BME280;31265;49.680;8.608;2022-09-03T00:15:31;100057.03;;;19.29;43.50
45541;BME280;31265;49.680;8.608;2022-09-03T00:18:04;100060.63;;;19.16;44.44
45541;BME280;31265;49.680;8.608;2022-09-03T00:20:38;100056.91;;;19.11;44.31
45541;BME280;31265;49.680;8.608;2022-09-03T00:23:11;100063.03;;;19.38;44.13
45541;BME280;31265;49.680;8.608;2022-09-03T00:25:46;100060.91;;;19.22;43.82
45541;BME280;31265;49.680;8.608;2022-09-03T00:28:19;100064.25;;;19.19;45.32
45541;BME280;31265;49.680;8.608;2022-09-03T00:31:04;100064.94;;;19.03;45.27
45541;BME280;31265;49.680;8.608;2022-09-03T00:33:34;100056.56;;;18.89;45.42
45541;BME280;31265;49.680;8.608;2022-09-03T00:36:09;100047.63;;;18.79;46.05
45541;BME280;31265;49.680;8.608;2022-09-03T00:38:38;100049.81;;;18.67;47.85
45541;BME280;31265;49.680;8.608;2022-09-03T00:41:18;100047.22;;;18.57;47.12
45541;BME280;31265;49.680;8.608;2022-09-03T00:44:20;100042.75;;;18.52;47.32
45541;BME280;31265;49.680;8.608;2022-09-03T00:46:58;100041.81;;;18.47;48.10
45541;BME280;31265;49.680;8.608;2022-09-03T00:49:38;100048.47;;;18.54;48.56
45541;BME280;31265;49.680;8.608;2022-09-03T00:52:19;100043.47;;;18.80;47.16
45541;BME280;31265;49.680;8.608;2022-09-03T00:55:00;100047.06;;;18.97;46.25
45541;BME280;31265;49.680;8.608;2022-09-03T00:57:37;100055.50;;;18.97;46.25
45541;BME280;31265;49.680;8.608;2022-09-03T01:00:16;100050.81;;;18.87;46.13
45541;BME280;31265;49.680;8.608;2022-09-03T01:02:58;100055.53;;;18.83;46.75
45541;BME280;31265;49.680;8.608;2022-09-03T01:05:50;100051.16;;;18.80;49.33
45541;BME280;31265;49.680;8.608;2022-09-03T01:08:42;100053.28;;;19.09;46.03
45541;BME280;31265;49.680;8.608;2022-09-03T01:11:22;100040.84;;;19.14;46.15
45541;BME280;31265;49.680;8.608;2022-09-03T01:14:03;100052.72;;;19.12;45.69
45541;BME280;31265;49.680;8.608;2022-09-03T01:16:38;100038.28;;;19.04;46.28
45541;BME280;31265;49.680;8.608;2022-09-03T01:19:21;100031.78;;;19.16;44.85
45541;BME280;31265;49.680;8.608;2022-09-03T01:22:09;100044.63;;;19.05;45.95
45541;BME280;31265;49.680;8.608;2022-09-03T01:25:14;100037.69;;;18.92;46.35
45541;BME280;31265;49.680;8.608;2022-09-03T01:27:59;100039.38;;;18.83;46.59
45541;BME280;31265;49.680;8.608;2022-09-03T01:30:30;100041.38;;;18.81;47.15
45541;BME280;31265;49.680;8.608;2022-09-03T01:33:06;100047.13;;;18.99;46.56
45541;BME280;31265;49.680;8.608;2022-09-03T01:35:41;100039.88;;;18.94;46.13
45541;BME280;31265;49.680;8.608;2022-09-03T01:38:18;100044.78;;;18.93;47.12
45541;BME280;31265;49.680;8.608;2022-09-03T01:41:02;100048.75;;;18.88;47.63
45541;BME280;31265;49.680;8.608;2022-09-03T01:43:58;100058.00;;;18.90;46.38
45541;BME280;31265;49.680;8.608;2022-09-03T01:46:34;100060.59;;;18.86;46.89
45541;BME280;31265;49.680;8.608;2022-09-03T01:49:12;100062.91;;;18.76;46.99
45541;BME280;31265;49.680;8.608;2022-09-03T01:51:49;100065.41;;;18.70;47.17
45541;BME280;31265;49.680;8.608;2022-09-03T01:54:31;100065.19;;;18.66;48.31
45541;BME280;31265;49.680;8.608;2022-09-03T01:57:17;100064.91;;;18.60;48.76
45541;BME280;31265;49.680;8.608;2022-09-03T02:00:08;100065.84;;;18.51;49.08
45541;BME280;31265;49.680;8.608;2022-09-03T02:02:39;100069.91;;;18.47;48.75
45541;BME280;31265;49.680;8.608;2022-09-03T02:05:11;100057.41;;;18.51;49.04
45541;BME280;31265;49.680;8.608;2022-09-03T02:07:43;100054.28;;;18.44;49.71
45541;BME280;31265;49.680;8.608;2022-09-03T02:10:14;100058.25;;;18.39;50.84
45541;BME280;31265;49.680;8.608;2022-09-03T02:12:45;100057.75;;;18.43;50.45
45541;BME280;31265;49.680;8.608;2022-09-03T02:15:18;100065.41;;;18.56;50.31
45541;BME280;31265;49.680;8.608;2022-09-03T02:17:50;100064.47;;;18.52;50.47
45541;BME280;31265;49.680;8.608;2022-09-03T02:20:25;100067.72;;;18.46;50.81
45541;BME280;31265;49.680;8.608;2022-09-03T02:22:55;100058.88;;;18.52;50.08
45541;BME280;31265;49.680;8.608;2022-09-03T02:25:28;100078.44;;;18.50;50.35
45541;BME280;31265;49.680;8.608;2022-09-03T02:27:58;100068.44;;;18.46;50.35
45541;BME280;31265;49.680;8.608;2022-09-03T02:30:28;100068.75;;;18.39;54.97
45541;BME280;31265;49.680;8.608;2022-09-03T02:32:56;100073.34;;;18.60;51.19
45541;BME280;31265;49.680;8.608;2022-09-03T02:35:24;100079.03;;;18.62;50.42
45541;BME280;31265;49.680;8.608;2022-09-03T02:37:52;100073.75;;;18.54;50.68
45541;BME280;31265;49.680;8.608;2022-09-03T02:40:20;100072.06;;;18.49;50.89
45541;BME280;31265;49.680;8.608;2022-09-03T02:42:48;100069.69;;;18.43;52.01
45541;BME280;31265;49.680;8.608;2022-09-03T02:45:22;100070.22;;;18.40;51.67
45541;BME280;31265;49.680;8.608;2022-09-03T02:47:55;100068.16;;;18.40;52.19
45541;BME280;31265;49.680;8.608;2022-09-03T02:50:24;100066.88;;;18.43;52.77
45541;BME280;31265;49.680;8.608;2022-09-03T02:52:52;100065.13;;;18.50;51.67
45541;BME280;31265;49.680;8.608;2022-09-03T02:55:20;100069.09;;;18.45;52.40
45541;BME280;31265;49.680;8.608;2022-09-03T02:57:48;100065.22;;;18.38;53.41
45541;BME280;31265;49.680;8.608;2022-09-03T03:00:17;100070.75;;;18.36;53.76
45541;BME280;31265;49.680;8.608;2022-09-03T03:02:45;100070.53;;;18.32;53.50
45541;BME280;31265;49.680;8.608;2022-09-03T03:05:20;100066.69;;;18.25;58.31
45541;BME280;31265;49.680;8.608;2022-09-03T03:07:51;100069.50;;;18.25;58.21
45541;BME280;31265;49.680;8.608;2022-09-03T03:10:21;100062.22;;;18.20;56.25
45541;BME280;31265;49.680;8.608;2022-09-03T03:12:49;100062.00;;;18.16;56.78
45541;BME280;31265;49.680;8.608;2022-09-03T03:15:17;100063.16;;;18.11;57.65
45541;BME280;31265;49.680;8.608;2022-09-03T03:17:45;100055.34;;;18.10;56.80
45541;BME280;31265;49.680;8.608;2022-09-03T03:20:15;100057.94;;;18.05;57.24
45541;BME280;31265;49.680;8.608;2022-09-03T03:22:43;100055.66;;;18.02;56.90
45541;BME280;31265;49.680;8.608;2022-09-03T03:25:11;100050.56;;;17.98;56.73
45541;BME280;31265;49.680;8.608;2022-09-03T03:27:39;100050.13;;;17.90;61.18
45541;BME280;31265;49.680;8.608;2022-09-03T03:30:09;100054.28;;;17.89;62.07
45541;BME280;31265;49.680;8.608;2022-09-03T03:32:38;100059.09;;;18.00;58.76
45541;BME280;31265;49.680;8.608;2022-09-03T03:35:06;100056.81;;;18.11;56.80
45541;BME280;31265;49.680;8.608;2022-09-03T03:37:36;100060.75;;;18.05;56.56
45541;BME280;31265;49.680;8.608;2022-09-03T03:40:04;100063.66;;;18.08;57.63
45541;BME280;31265;49.680;8.608;2022-09-03T03:42:33;100059.28;;;18.04;58.10
45541;BME280;31265;49.680;8.608;2022-09-03T03:45:02;100063.22;;;17.99;57.89
45541;BME280;31265;49.680;8.608;2022-09-03T03:47:30;100060.50;;;17.88;57.80
45541;BME280;31265;49.680;8.608;2022-09-03T03:49:58;100062.84;;;17.79;59.54
45541;BME280;31265;49.680;8.608;2022-09-03T03:52:27;100070.22;;;17.73;59.98
45541;BME280;31265;49.680;8.608;2022-09-03T03:54:56;100070.22;;;17.73;59.70
45541;BME280;31265;49.680;8.608;2022-09-03T03:57:24;100076.13;;;17.65;61.99
45541;BME280;31265;49.680;8.608;2022-09-03T03:59:52;100069.22;;;17.80;59.94
45541;BME280;31265;49.680;8.608;2022-09-03T04:02:20;100069.44;;;17.84;58.27
45541;BME280;31265;49.680;8.608;2022-09-03T04:04:48;100071.66;;;17.86;58.65
45541;BME280;31265;49.680;8.608;2022-09-03T04:07:16;100071.84;;;17.90;58.32
45541;BME280;31265;49.680;8.608;2022-09-03T04:09:45;100065.28;;;17.85;62.01
45541;BME280;31265;49.680;8.608;2022-09-03T04:12:17;100055.94;;;17.94;60.00
45541;BME280;31265;49.680;8.608;2022-09-03T04:14:45;100056.28;;;18.00;57.99
45541;BME280;31265;49.680;8.608;2022-09-03T04:17:13;100058.34;;;18.00;58.18
45541;BME280;31265;49.680;8.608;2022-09-03T04:19:41;100054.81;;;17.99;57.75
45541;BME280;31265;49.680;8.608;2022-09-03T04:22:09;100049.31;;;18.01;58.28
45541;BME280;31265;49.680;8.608;2022-09-03T04:24:37;100049.63;;;18.08;58.49
45541;BME280;31265;49.680;8.608;2022-09-03T04:27:05;100050.78;;;18.16;57.57
45541;BME280;31265;49.680;8.608;2022-09-03T04:29:36;100059.63;;;18.11;56.95
45541;BME280;31265;49.680;8.608;2022-09-03T04:32:05;100062.31;;;18.09;58.28
45541;BME280;31265;49.680;8.608;2022-09-03T04:34:51;100063.66;;;18.08;58.58
45541;BME280;31265;49.680;8.608;2022-09-03T04:37:19;100068.44;;;18.05;58.02
45541;BME280;31265;49.680;8.608;2022-09-03T04:39:47;100057.63;;;17.99;58.78
45541;BME280;31265;49.680;8.608;2022-09-03T04:42:15;100058.97;;;17.98;58.97
45541;BME280;31265;49.680;8.608;2022-09-03T04:44:44;100062.00;;;18.16;58.67
45541;BME280;31265;49.680;8.608;2022-09-03T04:47:12;100063.88;;;18.12;58.61
45541;BME280;31265;49.680;8.608;2022-09-03T04:49:41;100065.00;;;18.07;58.26
45541;BME280;31265;49.680;8.608;2022-09-03T04:52:09;100065.22;;;18.11;58.45
45541;BME280;31265;49.680;8.608;2022-09-03T04:54:37;100065.13;;;18.09;59.02
45541;BME280;31265;49.680;8.608;2022-09-03T04:57:05;100068.16;;;18.13;58.67
45541;BME280;31265;49.680;8.608;2022-09-03T04:59:33;100074.91;;;18.08;59.64
45541;BME280;31265;49.680;8.608;2022-09-03T05:02:03;100073.13;;;18.00;61.02
45541;BME280;31265;49.680;8.608;2022-09-03T05:04:31;100075.72;;;17.96;60.93
45541;BME280;31265;49.680;8.608;2022-09-03T05:06:59;100083.19;;;17.92;62.43
45541;BME280;31265;49.680;8.608;2022-09-03T05:09:27;100083.00;;;18.01;62.97
45541;BME280;31265;49.680;8.608;2022-09-03T05:11:55;100071.22;;;18.05;62.08
45541;BME280;31265;49.680;8.608;2022-09-03T05:14:23;100080.53;;;18.08;66.05
45541;BME280;31265;49.680;8.608;2022-09-03T05:16:51;100083.63;;;18.14;61.90
45541;BME280;31265;49.680;8.608;2022-09-03T05:19:21;100085.72;;;18.13;61.51
45541;BME280;31265;49.680;8.608;2022-09-03T05:21:49;100084.34;;;18.14;61.70
45541;BME280;31265;49.680;8.608;2022-09-03T05:24:17;100091.94;;;18.12;63.04
45541;BME280;31265;49.680;8.608;2022-09-03T05:26:45;100087.78;;;18.13;63.53
45541;BME280;31265;49.680;8.608;2022-09-03T05:29:14;100098.91;;;18.11;64.84
45541;BME280;31265;49.680;8.608;2022-09-03T05:31:42;100100.16;;;18.08;67.49
45541;BME280;31265;49.680;8.608;2022-09-03T05:34:10;100105.97;;;17.98;69.47
45541;BME280;31265;49.680;8.608;2022-09-03T05:36:45;100109.69;;;17.89;70.97
45541;BME280;31265;49.680;8.608;2022-09-03T05:39:15;100113.38;;;17.79;73.54
45541;BME280;31265;49.680;8.608;2022-09-03T05:41:43;100107.25;;;17.57;78.09
45541;BME280;31265;49.680;8.608;2022-09-03T05:44:12;100113.88;;;17.50;83.38
45541;BME280;31265;49.680;8.608;2022-09-03T05:46:40;100111.75;;;17.37;89.72
45541;BME280;31265;49.680;8.608;2022-09-03T05:49:08;100110.75;;;17.18;96.42
45541;BME280;31265;49.680;8.608;2022-09-03T05:51:37;100111.38;;;17.05;100.00
45541;BME280;31265;49.680;8.608;2022-09-03T05:54:07;100112.25;;;16.96;100.00
45541;BME280;31265;49.680;8.608;2022-09-03T05:56:37;100116.31;;;16.81;100.00
45541;BME280;31265;49.680;8.608;2022-09-03T05:59:08;100113.25;;;16.77;100.00
45541;BME280;31265;49.680;8.608;2022-09-03T06:01:38;100120.44;;;16.68;100.00
45541;BME280;31265;49.680;8.608;2022-09-03T06:04:13;100129.56;;;16.69;100.00
45541;BME280;31265;49.680;8.608;2022-09-03T06:06:43;100135.06;;;16.79;100.00
45541;BME280;31265;49.680;8.608;2022-09-03T06:09:14;100138.19;;;17.08;100.00
45541;BME280;31265;49.680;8.608;2022-09-03T06:11:45;100142.38;;;17.33;100.00
45541;BME280;31265;49.680;8.608;2022-09-03T06:14:16;100150.47;;;17.52;100.00
45541;BME280;31265;49.680;8.608;2022-09-03T06:16:46;100147.66;;;17.52;100.00
45541;BME280;31265;49.680;8.608;2022-09-03T06:19:15;100149.94;;;17.30;100.00
45541;BME280;31265;49.680;8.608;2022-09-03T06:21:44;100160.56;;;17.20;100.00
45541;BME280;31265;49.680;8.608;2022-09-03T06:24:17;100153.66;;;17.09;100.00
45541;BME280;31265;49.680;8.608;2022-09-03T06:26:46;100155.28;;;16.89;100.00
45541;BME280;31265;49.680;8.608;2022-09-03T06:29:14;100155.06;;;16.85;100.00
45541;BME280;31265;49.680;8.608;2022-09-03T06:31:44;100162.47;;;16.92;100.00
45541;BME280;31265;49.680;8.608;2022-09-03T06:34:14;100158.28;;;17.16;100.00
45541;BME280;31265;49.680;8.608;2022-09-03T06:36:44;100163.84;;;17.28;100.00
45541;BME280;31265;49.680;8.608;2022-09-03T06:39:12;100161.34;;;17.46;100.00
45541;BME280;31265;49.680;8.608;2022-09-03T06:41:41;100168.41;;;17.73;100.00
45541;BME280;31265;49.680;8.608;2022-09-03T06:44:10;100178.66;;;18.05;100.00
45541;BME280;31265;49.680;8.608;2022-09-03T06:46:39;100174.19;;;18.00;100.00
45541;BME280;31265;49.680;8.608;2022-09-03T06:49:10;100183.03;;;18.09;100.00
45541;BME280;31265;49.680;8.608;2022-09-03T06:51:38;100186.91;;;17.90;100.00
45541;BME280;31265;49.680;8.608;2022-09-03T06:54:08;100180.59;;;17.77;100.00
45541;BME280;31265;49.680;8.608;2022-09-03T06:56:38;100185.19;;;17.59;100.00
45541;BME280;31265;49.680;8.608;2022-09-03T06:59:10;100175.84;;;17.80;98.84
45541;BME280;31265;49.680;8.608;2022-09-03T07:01:38;100184.19;;;17.66;97.63
45541;BME280;31265;49.680;8.608;2022-09-03T07:04:11;100176.50;;;17.67;98.77
45541;BME280;31265;49.680;8.608;2022-09-03T07:06:42;100174.38;;;17.53;100.00
45541;BME280;31265;49.680;8.608;2022-09-03T07:09:13;100175.22;;;17.56;100.00
45541;BME280;31265;49.680;8.608;2022-09-03T07:11:44;100160.56;;;17.57;100.00
45541;BME280;31265;49.680;8.608;2022-09-03T07:14:17;100169.09;;;17.59;100.00
45541;BME280;31265;49.680;8.608;2022-09-03T07:16:46;100167.97;;;17.39;100.00
45541;BME280;31265;49.680;8.608;2022-09-03T07:19:15;100169.88;;;17.48;100.00
45541;BME280;31265;49.680;8.608;2022-09-03T07:21:43;100175.50;;;17.48;100.00
45541;BME280;31265;49.680;8.608;2022-09-03T07:24:17;100175.28;;;17.32;100.00
45541;BME280;31265;49.680;8.608;2022-09-03T07:26:47;100177.25;;;17.30;100.00
45541;BME280;31265;49.680;8.608;2022-09-03T07:29:17;100172.63;;;17.23;100.00
45541;BME280;31265;49.680;8.608;2022-09-03T07:31:48;100175.72;;;17.15;100.00
45541;BME280;31265;49.680;8.608;2022-09-03T07:34:19;100184.91;;;17.41;100.00
45541;BME280;31265;49.680;8.608;2022-09-03T07:36:49;100186.59;;;17.72;100.00
45541;BME280;31265;49.680;8.608;2022-09-03T07:39:18;100186.19;;;17.52;100.00
45541;BME280;31265;49.680;8.608;2022-09-03T07:41:46;100192.94;;;17.72;100.00
45541;BME280;31265;49.680;8.608;2022-09-03T07:44:17;100189.25;;;17.56;100.00
45541;BME280;31265;49.680;8.608;2022-09-03T07:46:46;100199.13;;;17.82;100.00
45541;BME280;31265;49.680;8.608;2022-09-03T07:49:17;100195.88;;;17.74;100.00
45541;BME280;31265;49.680;8.608;2022-09-03T07:51:46;100198.06;;;17.76;100.00
45541;BME280;31265;49.680;8.608;2022-09-03T07:54:16;100205.34;;;17.93;100.00
45541;BME280;31265;49.680;8.608;2022-09-03T07:56:46;100209.59;;;18.33;100.00
45541;BME280;31265;49.680;8.608;2022-09-03T07:59:14;100219.41;;;18.07;100.00
45541;BME280;31265;49.680;8.608;2022-09-03T08:01:44;100211.03;;;17.95;100.00
45541;BME280;31265;49.680;8.608;2022-09-03T08:04:12;100211.13;;;17.83;100.00
45541;BME280;31265;49.680;8.608;2022-09-03T08:06:40;100211.38;;;18.01;100.00
45541;BME280;31265;49.680;8.608;2022-09-03T08:09:10;100212.41;;;17.94;100.00
45541;BME280;31265;49.680;8.608;2022-09-03T08:11:41;100201.66;;;17.90;100.00
45541;BME280;31265;49.680;8.608;2022-09-03T08:14:12;100200.72;;;17.86;100.00
45541;BME280;31265;49.680;8.608;2022-09-03T08:16:42;100192.31;;;17.86;100.00
45541;BME280;31265;49.680;8.608;2022-09-03T08:19:12;100189.66;;;17.76;100.00
45541;BME280;31265;49.680;8.608;2022-09-03T08:21:40;100183.81;;;17.97;100.00
45541;BME280;31265;49.680;8.608;2022-09-03T08:24:09;100177.53;;;17.85;100.00
45541;BME280;31265;49.680;8.608;2022-09-03T08:26:39;100182.53;;;18.26;100.00
45541;BME280;31265;49.680;8.608;2022-09-03T08:29:16;100182.00;;;18.16;100.00
45541;BME280;31265;49.680;8.608;2022-09-03T08:31:44;100184.75;;;18.41;100.00
45541;BME280;31265;49.680;8.608;2022-09-03T08:34:14;100189.56;;;18.53;100.00
45541;BME280;31265;49.680;8.608;2022-09-03T08:36:43;100184.69;;;18.81;100.00
45541;BME280;31265;49.680;8.608;2022-09-03T08:39:12;100193.66;;;19.05;100.00
45541;BME280;31265;49.680;8.608;2022-09-03T08:42:09;100198.22;;;18.98;100.00
45541;BME280;31265;49.680;8.608;2022-09-03T08:44:44;100203.41;;;19.04;100.00
45541;BME280;31265;49.680;8.608;2022-09-03T08:47:18;100200.59;;;19.04;100.00
45541;BME280;31265;49.680;8.608;2022-09-03T08:49:53;100206.56;;;19.10;100.00
45541;BME280;31265;49.680;8.608;2022-09-03T08:52:27;100210.50;;;19.19;100.00
45541;BME280;31265;49.680;8.608;2022-09-03T08:55:12;100216.75;;;19.17;100.00
45541;BME280;31265;49.680;8.608;2022-09-03T08:57:45;100218.34;;;18.93;100.00
45541;BME280;31265;49.680;8.608;2022-09-03T09:00:14;100226.75;;;19.06;100.00
45541;BME280;31265;49.680;8.608;2022-09-03T09:03:00;100221.88;;;18.79;100.00
45541;BME280;31265;49.680;8.608;2022-09-03T09:05:41;100227.19;;;18.87;100.00
45541;BME280;31265;49.680;8.608;2022-09-03T09:08:16;100237.78;;;18.75;100.00
45541;BME280;31265;49.680;8.608;2022-09-03T09:10:53;100247.25;;;18.81;100.00
45541;BME280;31265;49.680;8.608;2022-09-03T09:13:28;100245.53;;;18.48;100.00
45541;BME280;31265;49.680;8.608;2022-09-03T09:16:05;100259.97;;;18.43;100.00
45541;BME280;31265;49.680;8.608;2022-09-03T09:18:49;100260.41;;;18.51;100.00
45541;BME280;31265;49.680;8.608;2022-09-03T09:21:26;100264.59;;;18.24;100.00
45541;BME280;31265;49.680;8.608;2022-09-03T09:23:58;100274.03;;;18.17;100.00
45541;BME280;31265;49.680;8.608;2022-09-03T09:26:28;100275.34;;;18.42;100.00
45541;BME280;31265;49.680;8.608;2022-09-03T09:29:00;100276.34;;;18.60;100.00
45541;BME280;31265;49.680;8.608;2022-09-03T09:31:30;100269.53;;;18.77;100.00
45541;BME280;31265;49.680;8.608;2022-09-03T09:34:01;100275.50;;;19.39;100.00
45541;BME280;31265;49.680;8.608;2022-09-03T09:36:42;100269.81;;;19.52;100.00
45541;BME280;31265;49.680;8.608;2022-09-03T09:39:13;100266.19;;;19.36;100.00
45541;BME280;31265;49.680;8.608;2022-09-03T09:41:42;100247.84;;;18.66;100.00
45541;BME280;31265;49.680;8.608;2022-09-03T09:44:18;100244.91;;;18.64;100.00
45541;BME280;31265;49.680;8.608;2022-09-03T09:46:46;100230.09;;;18.36;100.00
45541;BME280;31265;49.680;8.608;2022-09-03T09:49:29;100230.22;;;18.52;100.00
45541;BME280;31265;49.680;8.608;2022-09-03T09:52:08;100245.81;;;18.80;100.00
45541;BME280;31265;49.680;8.608;2022-09-03T09:54:38;100252.91;;;18.95;100.00
45541;BME280;31265;49.680;8.608;2022-09-03T09:57:14;100258.69;;;19.41;100.00
45541;BME280;31265;49.680;8.608;2022-09-03T09:59:44;100251.53;;;19.10;100.00
45541;BME280;31265;49.680;8.608;2022-09-03T10:02:14;100262.94;;;19.55;100.00
45541;BME280;31265;49.680;8.608;2022-09-03T10:04:49;100256.00;;;20.16;100.00
45541;BME280;31265;49.680;8.608;2022-09-03T10:07:24;100255.88;;;20.59;100.00
45541;BME280;31265;49.680;8.608;2022-09-03T10:10:01;100254.63;;;20.17;100.00
45541;BME280;31265;49.680;8.608;2022-09-03T10:12:33;100254.31;;;20.88;100.00
45541;BME280;31265;49.680;8.608;2022-09-03T10:15:11;100259.97;;;21.38;100.00
45541;BME280;31265;49.680;8.608;2022-09-03T10:17:55;100247.25;;;21.21;100.00
45541;BME280;31265;49.680;8.608;2022-09-03T10:20:30;100243.09;;;21.92;100.00
45541;BME280;31265;49.680;8.608;2022-09-03T10:23:10;100254.34;;;23.03;93.08
45541;BME280;31265;49.680;8.608;2022-09-03T10:25:56;100254.44;;;24.39;79.30
45541;BME280;31265;49.680;8.608;2022-09-03T10:28:30;100251.88;;;24.98;77.65
45541;BME280;31265;49.680;8.608;2022-09-03T10:31:16;100259.31;;;25.39;70.36
45541;BME280;31265;49.680;8.608;2022-09-03T10:33:50;100247.09;;;25.91;67.37
45541;BME280;31265;49.680;8.608;2022-09-03T10:36:24;100251.44;;;25.09;70.79
45541;BME280;31265;49.680;8.608;2022-09-03T10:39:03;100252.97;;;24.86;80.47
45541;BME280;31265;49.680;8.608;2022-09-03T10:41:42;100256.00;;;25.77;66.74
45541;BME280;31265;49.680;8.608;2022-09-03T10:44:28;100243.63;;;26.27;63.70
45541;BME280;31265;49.680;8.608;2022-09-03T10:47:11;100235.63;;;26.17;62.89
45541;BME280;31265;49.680;8.608;2022-09-03T10:49:49;100240.97;;;25.72;70.52
45541;BME280;31265;49.680;8.608;2022-09-03T10:52:26;100240.28;;;25.74;70.06
45541;BME280;31265;49.680;8.608;2022-09-03T10:55:06;100236.22;;;26.11;65.72
45541;BME280;31265;49.680;8.608;2022-09-03T10:57:47;100228.31;;;26.42;64.99
45541;BME280;31265;49.680;8.608;2022-09-03T11:00:18;100240.25;;;26.02;69.95
45541;BME280;31265;49.680;8.608;2022-09-03T11:03:01;100226.91;;;27.16;56.91
45541;BME280;31265;49.680;8.608;2022-09-03T11:05:37;100232.31;;;27.86;52.53
45541;BME280;31265;49.680;8.608;2022-09-03T11:08:13;100235.63;;;28.17;52.23
45541;BME280;31265;49.680;8.608;2022-09-03T11:10:47;100220.69;;;27.70;55.37
45541;BME280;31265;49.680;8.608;2022-09-03T11:13:21;100223.53;;;27.26;58.54
45541;BME280;31265;49.680;8.608;2022-09-03T11:15:54;100227.59;;;26.76;58.89
45541;BME280;31265;49.680;8.608;2022-09-03T11:18:26;100227.34;;;28.40;51.85
45541;BME280;31265;49.680;8.608;2022-09-03T11:20:58;100227.28;;;28.36;50.58
45541;BME280;31265;49.680;8.608;2022-09-03T11:23:39;100228.72;;;28.98;48.60
45541;BME280;31265;49.680;8.608;2022-09-03T11:26:12;100216.44;;;28.24;49.24
45541;BME280;31265;49.680;8.608;2022-09-03T11:28:44;100219.00;;;28.54;46.70
45541;BME280;31265;49.680;8.608;2022-09-03T11:31:25;100215.06;;;28.86;45.64
45541;BME280;31265;49.680;8.608;2022-09-03T11:34:00;100222.78;;;28.75;46.32
45541;BME280;31265;49.680;8.608;2022-09-03T11:36:36;100213.09;;;27.40;51.61
45541;BME280;31265;49.680;8.608;2022-09-03T11:39:12;100214.44;;;28.35;52.38
45541;BME280;31265;49.680;8.608;2022-09-03T11:41:57;100209.34;;;28.88;46.90
45541;BME280;31265;49.680;8.608;2022-09-03T11:44:34;100202.25;;;28.93;46.08
45541;BME280;31265;49.680;8.608;2022-09-03T11:47:16;100207.97;;;29.76;44.98
45541;BME280;31265;49.680;8.608;2022-09-03T11:49:49;100207.84;;;28.81;47.76
45541;BME280;31265;49.680;8.608;2022-09-03T11:52:28;100197.00;;;27.17;52.52
45541;BME280;31265;49.680;8.608;2022-09-03T11:54:57;100194.03;;;26.70;59.29
45541;BME280;31265;49.680;8.608;2022-09-03T11:57:39;100202.13;;;26.48;58.41
45541;BME280;31265;49.680;8.608;2022-09-03T12:00:11;100190.53;;;26.37;59.40
45541;BME280;31265;49.680;8.608;2022-09-03T12:02:43;100190.38;;;26.64;57.54
45541;BME280;31265;49.680;8.608;2022-09-03T12:05:21;100196.66;;;26.24;57.57
45541;BME280;31265;49.680;8.608;2022-09-03T12:08:13;100191.03;;;25.63;61.61
45541;BME280;31265;49.680;8.608;2022-09-03T12:10:50;100199.50;;;25.61;64.74
45541;BME280;31265;49.680;8.608;2022-09-03T12:13:45;100192.00;;;26.06;61.14
45541;BME280;31265;49.680;8.608;2022-09-03T12:16:43;100193.09;;;25.91;60.52
45541;BME280;31265;49.680;8.608;2022-09-03T12:19:20;100193.25;;;25.97;62.39
45541;BME280;31265;49.680;8.608;2022-09-03T12:21:55;100186.72;;;25.90;63.83
45541;BME280;31265;49.680;8.608;2022-09-03T12:24:25;100180.97;;;26.93;54.29
45541;BME280;31265;49.680;8.608;2022-09-03T12:27:04;100184.69;;;26.64;55.97
45541;BME280;31265;49.680;8.608;2022-09-03T12:29:35;100184.75;;;26.68;54.92
45541;BME280;31265;49.680;8.608;2022-09-03T12:32:08;100183.78;;;26.21;55.37
45541;BME280;31265;49.680;8.608;2022-09-03T12:34:38;100169.41;;;25.48;58.69
45541;BME280;31265;49.680;8.608;2022-09-03T12:37:18;100163.31;;;25.92;58.33
45541;BME280;31265;49.680;8.608;2022-09-03T12:40:17;100163.94;;;26.23;56.22
45541;BME280;31265;49.680;8.608;2022-09-03T12:42:47;100157.50;;;25.56;62.37
45541;BME280;31265;49.680;8.608;2022-09-03T12:45:19;100164.63;;;25.87;58.16
45541;BME280;31265;49.680;8.608;2022-09-03T12:47:47;100171.59;;;25.82;59.67
45541;BME280;31265;49.680;8.608;2022-09-03T12:50:19;100173.94;;;25.03;63.20
45541;BME280;31265;49.680;8.608;2022-09-03T12:52:50;100167.44;;;24.20;66.20
45541;BME280;31265;49.680;8.608;2022-09-03T12:55:26;100170.22;;;24.96;66.08
45541;BME280;31265;49.680;8.608;2022-09-03T12:58:00;100176.06;;;25.61;60.69
45541;BME280;31265;49.680;8.608;2022-09-03T13:00:34;100169.91;;;26.37;57.82
45541;BME280;31265;49.680;8.608;2022-09-03T13:03:06;100181.66;;;26.55;50.85
45541;BME280;31265;49.680;8.608;2022-09-03T13:05:41;100188.53;;;28.16;44.88
45541;BME280;31265;49.680;8.608;2022-09-03T13:08:17;100186.59;;;28.94;43.33
45541;BME280;31265;49.680;8.608;2022-09-03T13:10:50;100182.47;;;29.09;42.09
45541;BME280;31265;49.680;8.608;2022-09-03T13:13:22;100179.84;;;28.06;46.50
45541;BME280;31265;49.680;8.608;2022-09-03T13:16:03;100188.16;;;27.85;48.89
45541;BME280;31265;49.680;8.608;2022-09-03T13:18:39;100187.47;;;27.40;47.63